sensor_id;sensor_type;location;lat;lon;timestamp;pressure;altitude;pressure_sealevel;temperature;humidity
20710;BME280;10516;51.518;9.864;2023-02-28T00:00:22;100149.03;;;-0.56;74.38
20710;BME280;10516;51.518;9.864;2023-02-28T00:02:48;100144.25;;;-0.97;70.94
20710;BME280;10516;51.518;9.864;2023-02-28T00:05:15;100146.53;;;-1.21;72.48
20710;BME280;10516;51.518;9.864;2023-02-28T00:07:41;100139.38;;;-0.11;73.73
20710;BME280;10516;51.518;9.864;2023-02-28T00:10:10;100144.78;;;0.06;73.20
20710;BME280;10516;51.518;9.864;2023-02-28T00:12:36;100144.72;;;0.33;72.25
20710;BME280;10516;51.518;9.864;2023-02-28T00:15:02;100144.94;;;0.39;72.16
20710;BME280;10516;51.518;9.864;2023-02-28T00:17:27;100143.34;;;0.46;71.71
20710;BME280;10516;51.518;9.864;2023-02-28T00:19:53;100151.09;;;-0.05;72.13
20710;BME280;10516;51.518;9.864;2023-02-28T00:22:18;100146.97;;;0.28;72.21
20710;BME280;10516;51.518;9.864;2023-02-28T00:24:44;100155.13;;;0.25;72.01
20710;BME280;10516;51.518;9.864;2023-02-28T00:27:10;100155.97;;;0.08;71.78
20710;BME280;10516;51.518;9.864;2023-02-28T00:29:35;100147.94;;;0.09;72.35
20710;BME280;10516;51.518;9.864;2023-02-28T00:32:01;100152.22;;;0.10;71.37
20710;BME280;10516;51.518;9.864;2023-02-28T00:34:26;100148.38;;;-0.13;71.18
20710;BME280;10516;51.518;9.864;2023-02-28T00:36:51;100147.63;;;-0.23;70.33
20710;BME280;10516;51.518;9.864;2023-02-28T00:39:17;100156.72;;;0.18;72.80
20710;BME280;10516;51.518;9.864;2023-02-28T00:41:42;100149.44;;;-0.06;69.73
20710;BME280;10516;51.518;9.864;2023-02-28T00:44:07;100145.03;;;-0.33;69.60
20710;BME280;10516;51.518;9.864;2023-02-28T00:46:32;100146.84;;;-0.60;69.30
20710;BME280;10516;51.518;9.864;2023-02-28T00:48:58;100153.16;;;-0.26;70.70
20710;BME280;10516;51.518;9.864;2023-02-28T00:51:23;100147.34;;;-0.20;70.27
20710;BME280;10516;51.518;9.864;2023-02-28T00:53:48;100143.91;;;-0.03;70.64
20710;BME280;10516;51.518;9.864;2023-02-28T00:56:13;100150.16;;;-0.31;71.25
20710;BME280;10516;51.518;9.864;2023-02-28T00:58:39;100149.31;;;-0.05;72.74
20710;BME280;10516;51.518;9.864;2023-02-28T01:01:04;100158.59;;;0.25;72.21
20710;BME280;10516;51.518;9.864;2023-02-28T01:03:29;100145.38;;;-0.18;72.07
20710;BME280;10516;51.518;9.864;2023-02-28T01:05:54;100157.25;;;-1.05;68.58
20710;BME280;10516;51.518;9.864;2023-02-28T01:08:20;100150.56;;;-1.46;69.12
20710;BME280;10516;51.518;9.864;2023-02-28T01:10:45;100149.84;;;-1.19;70.68
20710;BME280;10516;51.518;9.864;2023-02-28T01:13:12;100146.53;;;-1.21;69.38
20710;BME280;10516;51.518;9.864;2023-02-28T01:15:38;100146.00;;;-1.25;69.89
20710;BME280;10516;51.518;9.864;2023-02-28T01:18:05;100148.78;;;-1.55;68.44
20710;BME280;10516;51.518;9.864;2023-02-28T01:20:31;100134.47;;;-1.05;71.85
20710;BME280;10516;51.518;9.864;2023-02-28T01:22:56;100134.31;;;-1.49;69.52
20710;BME280;10516;51.518;9.864;2023-02-28T01:25:21;100127.78;;;-0.80;72.56
20710;BME280;10516;51.518;9.864;2023-02-28T01:27:46;100125.69;;;-1.13;72.64
20710;BME280;10516;51.518;9.864;2023-02-28T01:30:12;100130.22;;;-0.42;73.84
20710;BME280;10516;51.518;9.864;2023-02-28T01:32:37;100135.66;;;0.10;73.37
20710;BME280;10516;51.518;9.864;2023-02-28T01:35:02;100134.28;;;0.06;71.31
20710;BME280;10516;51.518;9.864;2023-02-28T01:37:28;100130.38;;;-1.17;67.58
20710;BME280;10516;51.518;9.864;2023-02-28T01:39:53;100133.38;;;-0.21;74.06
20710;BME280;10516;51.518;9.864;2023-02-28T01:42:18;100129.56;;;-1.17;68.25
20710;BME280;10516;51.518;9.864;2023-02-28T01:45:04;100129.94;;;-1.59;68.36
20710;BME280;10516;51.518;9.864;2023-02-28T01:47:32;100127.69;;;-1.34;68.71
20710;BME280;10516;51.518;9.864;2023-02-28T01:50:00;100137.34;;;-0.98;71.32
20710;BME280;10516;51.518;9.864;2023-02-28T01:52:25;100125.38;;;-1.01;69.51
20710;BME280;10516;51.518;9.864;2023-02-28T01:54:52;100123.28;;;-0.16;73.53
20710;BME280;10516;51.518;9.864;2023-02-28T01:57:19;100118.94;;;-0.79;71.18
20710;BME280;10516;51.518;9.864;2023-02-28T01:59:54;100119.25;;;-0.92;72.11
20710;BME280;10516;51.518;9.864;2023-02-28T02:02:21;100127.41;;;-1.31;70.79
20710;BME280;10516;51.518;9.864;2023-02-28T02:05:10;100127.53;;;-1.33;69.60
20710;BME280;10516;51.518;9.864;2023-02-28T02:07:37;100111.66;;;-0.85;73.31
20710;BME280;10516;51.518;9.864;2023-02-28T02:10:06;100116.06;;;-0.14;73.84
20710;BME280;10516;51.518;9.864;2023-02-28T02:15:16;100102.06;;;0.13;72.58
20710;BME280;10516;51.518;9.864;2023-02-28T02:17:48;100102.44;;;0.44;71.62
20710;BME280;10516;51.518;9.864;2023-02-28T02:20:38;100097.19;;;-0.62;70.40
20710;BME280;10516;51.518;9.864;2023-02-28T02:25:54;100100.47;;;-1.14;70.63
20710;BME280;10516;51.518;9.864;2023-02-28T02:43:36;100112.47;;;-2.06;69.22
20710;BME280;10516;51.518;9.864;2023-02-28T02:46:06;100105.06;;;-1.35;72.55
20710;BME280;10516;51.518;9.864;2023-02-28T02:48:34;100109.97;;;-1.79;69.52
20710;BME280;10516;51.518;9.864;2023-02-28T02:51:02;100103.88;;;-1.04;70.67
20710;BME280;10516;51.518;9.864;2023-02-28T02:53:30;100102.28;;;-0.16;72.63
20710;BME280;10516;51.518;9.864;2023-02-28T02:55:57;100101.75;;;0.16;72.33
20710;BME280;10516;51.518;9.864;2023-02-28T02:58:25;100105.50;;;-0.04;71.63
20710;BME280;10516;51.518;9.864;2023-02-28T03:00:56;100106.91;;;-0.45;71.48
20710;BME280;10516;51.518;9.864;2023-02-28T03:03:23;100101.50;;;0.27;72.36
20710;BME280;10516;51.518;9.864;2023-02-28T03:05:54;100107.00;;;-0.02;70.61
20710;BME280;10516;51.518;9.864;2023-02-28T03:08:19;100106.03;;;0.17;70.21
20710;BME280;10516;51.518;9.864;2023-02-28T03:10:46;100113.97;;;0.08;69.12
20710;BME280;10516;51.518;9.864;2023-02-28T03:15:51;100106.78;;;0.10;72.62
20710;BME280;10516;51.518;9.864;2023-02-28T03:18:21;100104.13;;;0.27;72.05
20710;BME280;10516;51.518;9.864;2023-02-28T03:20:57;100101.84;;;0.50;70.92
20710;BME280;10516;51.518;9.864;2023-02-28T03:23:32;100106.59;;;0.29;69.78
20710;BME280;10516;51.518;9.864;2023-02-28T03:26:34;100107.22;;;-1.12;66.39
20710;BME280;10516;51.518;9.864;2023-02-28T03:31:21;100111.44;;;-1.57;66.75
20710;BME280;10516;51.518;9.864;2023-02-28T03:33:53;100118.38;;;-1.85;67.16
20710;BME280;10516;51.518;9.864;2023-02-28T03:36:22;100125.94;;;-1.91;68.21
20710;BME280;10516;51.518;9.864;2023-02-28T03:38:51;100117.53;;;-1.01;70.89
20710;BME280;10516;51.518;9.864;2023-02-28T03:41:20;100120.47;;;-0.59;72.09
20710;BME280;10516;51.518;9.864;2023-02-28T03:43:51;100108.59;;;-0.53;70.84
20710;BME280;10516;51.518;9.864;2023-02-28T03:46:18;100123.03;;;-0.94;69.14
20710;BME280;10516;51.518;9.864;2023-02-28T03:48:51;100112.59;;;-0.77;67.89
20710;BME280;10516;51.518;9.864;2023-02-28T03:51:19;100117.09;;;-0.96;71.02
20710;BME280;10516;51.518;9.864;2023-02-28T03:53:50;100112.13;;;-0.72;72.77
20710;BME280;10516;51.518;9.864;2023-02-28T03:56:21;100112.19;;;-0.54;71.09
20710;BME280;10516;51.518;9.864;2023-02-28T03:58:55;100113.13;;;0.25;72.51
20710;BME280;10516;51.518;9.864;2023-02-28T04:01:23;100114.97;;;-0.56;68.00
20710;BME280;10516;51.518;9.864;2023-02-28T04:03:51;100119.13;;;-0.63;68.33
20710;BME280;10516;51.518;9.864;2023-02-28T04:06:17;100111.41;;;-0.64;70.72
20710;BME280;10516;51.518;9.864;2023-02-28T04:08:43;100106.31;;;0.32;71.96
20710;BME280;10516;51.518;9.864;2023-02-28T04:11:20;100106.91;;;0.26;70.09
20710;BME280;10516;51.518;9.864;2023-02-28T04:13:46;100114.25;;;0.22;70.03
20710;BME280;10516;51.518;9.864;2023-02-28T04:16:11;100121.19;;;-0.94;66.91
20710;BME280;10516;51.518;9.864;2023-02-28T04:18:40;100119.44;;;-0.04;72.07
20710;BME280;10516;51.518;9.864;2023-02-28T04:21:07;100109.13;;;-1.04;65.99
20710;BME280;10516;51.518;9.864;2023-02-28T04:23:33;100117.09;;;-1.62;66.76
20710;BME280;10516;51.518;9.864;2023-02-28T04:25:58;100119.50;;;-1.12;69.30
20710;BME280;10516;51.518;9.864;2023-02-28T04:28:24;100120.97;;;-1.46;68.09
20710;BME280;10516;51.518;9.864;2023-02-28T04:30:59;100126.47;;;-1.59;67.56
20710;BME280;10516;51.518;9.864;2023-02-28T04:33:25;100118.91;;;-1.62;67.00
20710;BME280;10516;51.518;9.864;2023-02-28T04:38:24;100114.16;;;-1.20;68.26
20710;BME280;10516;51.518;9.864;2023-02-28T04:40:50;100125.09;;;-1.63;67.50
20710;BME280;10516;51.518;9.864;2023-02-28T04:43:15;100127.56;;;-1.52;68.62
20710;BME280;10516;51.518;9.864;2023-02-28T04:45:40;100127.72;;;-1.63;67.93
20710;BME280;10516;51.518;9.864;2023-02-28T04:48:05;100131.06;;;-1.71;69.21
20710;BME280;10516;51.518;9.864;2023-02-28T04:50:30;100127.34;;;-1.78;68.79
20710;BME280;10516;51.518;9.864;2023-02-28T04:52:56;100132.00;;;-1.81;68.82
20710;BME280;10516;51.518;9.864;2023-02-28T04:55:21;100126.50;;;-1.69;69.27
20710;BME280;10516;51.518;9.864;2023-02-28T04:57:46;100131.66;;;-1.30;70.82
20710;BME280;10516;51.518;9.864;2023-02-28T05:00:12;100135.59;;;-1.92;68.92
20710;BME280;10516;51.518;9.864;2023-02-28T05:02:40;100132.66;;;-1.41;71.13
20710;BME280;10516;51.518;9.864;2023-02-28T05:05:05;100128.94;;;-1.29;71.10
20710;BME280;10516;51.518;9.864;2023-02-28T05:07:31;100129.19;;;-1.32;70.85
20710;BME280;10516;51.518;9.864;2023-02-28T05:09:56;100132.66;;;-1.51;70.92
20710;BME280;10516;51.518;9.864;2023-02-28T05:12:21;100136.78;;;-1.48;71.12
20710;BME280;10516;51.518;9.864;2023-02-28T05:14:46;100135.47;;;-1.71;69.85
20710;BME280;10516;51.518;9.864;2023-02-28T05:17:12;100136.81;;;-1.96;71.32
20710;BME280;10516;51.518;9.864;2023-02-28T05:19:37;100137.78;;;-1.78;72.13
20710;BME280;10516;51.518;9.864;2023-02-28T05:22:02;100142.34;;;-2.08;71.33
20710;BME280;10516;51.518;9.864;2023-02-28T05:24:27;100139.88;;;-1.91;71.37
20710;BME280;10516;51.518;9.864;2023-02-28T05:26:53;100133.44;;;-0.85;74.05
20710;BME280;10516;51.518;9.864;2023-02-28T05:29:19;100131.25;;;-1.35;70.56
20710;BME280;10516;51.518;9.864;2023-02-28T05:31:44;100125.88;;;-0.88;72.47
20710;BME280;10516;51.518;9.864;2023-02-28T05:34:10;100127.19;;;-0.74;72.71
20710;BME280;10516;51.518;9.864;2023-02-28T05:36:37;100134.44;;;-1.32;69.80
20710;BME280;10516;51.518;9.864;2023-02-28T05:39:03;100130.72;;;-1.39;71.04
20710;BME280;10516;51.518;9.864;2023-02-28T05:41:28;100147.19;;;-1.10;72.51
20710;BME280;10516;51.518;9.864;2023-02-28T05:43:53;100138.59;;;-1.02;71.61
20710;BME280;10516;51.518;9.864;2023-02-28T05:46:19;100137.81;;;-1.12;70.75
20710;BME280;10516;51.518;9.864;2023-02-28T05:48:45;100143.38;;;-1.34;70.87
20710;BME280;10516;51.518;9.864;2023-02-28T05:51:11;100147.38;;;-1.30;70.89
20710;BME280;10516;51.518;9.864;2023-02-28T05:53:36;100155.56;;;-1.72;71.37
20710;BME280;10516;51.518;9.864;2023-02-28T05:56:02;100140.56;;;-1.04;72.44
20710;BME280;10516;51.518;9.864;2023-02-28T05:58:27;100146.91;;;-1.82;71.17
20710;BME280;10516;51.518;9.864;2023-02-28T06:00:56;100146.59;;;-1.60;72.12
20710;BME280;10516;51.518;9.864;2023-02-28T06:03:21;100153.63;;;-1.89;70.20
20710;BME280;10516;51.518;9.864;2023-02-28T06:05:47;100150.44;;;-1.44;72.29
20710;BME280;10516;51.518;9.864;2023-02-28T06:08:12;100147.97;;;-1.65;71.16
20710;BME280;10516;51.518;9.864;2023-02-28T06:10:37;100152.50;;;-1.77;71.38
20710;BME280;10516;51.518;9.864;2023-02-28T06:13:03;100159.00;;;-1.81;70.88
20710;BME280;10516;51.518;9.864;2023-02-28T06:15:29;100162.72;;;-1.93;70.56
20710;BME280;10516;51.518;9.864;2023-02-28T06:17:54;100162.72;;;-1.83;70.70
20710;BME280;10516;51.518;9.864;2023-02-28T06:20:21;100161.63;;;-1.81;70.90
20710;BME280;10516;51.518;9.864;2023-02-28T06:22:47;100162.03;;;-1.95;70.60
20710;BME280;10516;51.518;9.864;2023-02-28T06:25:12;100158.41;;;-1.36;72.04
20710;BME280;10516;51.518;9.864;2023-02-28T06:27:37;100165.63;;;-0.92;71.00
20710;BME280;10516;51.518;9.864;2023-02-28T06:30:03;100159.28;;;-0.62;71.77
20710;BME280;10516;51.518;9.864;2023-02-28T06:32:28;100165.88;;;-0.58;71.11
20710;BME280;10516;51.518;9.864;2023-02-28T06:34:54;100168.78;;;-0.98;71.01
20710;BME280;10516;51.518;9.864;2023-02-28T06:37:19;100167.91;;;-0.80;71.78
20710;BME280;10516;51.518;9.864;2023-02-28T06:39:45;100165.16;;;-0.51;73.37
20710;BME280;10516;51.518;9.864;2023-02-28T06:42:10;100170.63;;;-1.18;70.92
20710;BME280;10516;51.518;9.864;2023-02-28T06:44:35;100178.94;;;-1.41;70.70
20710;BME280;10516;51.518;9.864;2023-02-28T06:47:01;100178.72;;;-0.55;72.94
20710;BME280;10516;51.518;9.864;2023-02-28T06:49:28;100179.09;;;-0.78;71.65
20710;BME280;10516;51.518;9.864;2023-02-28T06:51:53;100180.84;;;-0.68;70.97
20710;BME280;10516;51.518;9.864;2023-02-28T06:54:19;100186.09;;;-1.24;69.32
20710;BME280;10516;51.518;9.864;2023-02-28T06:56:44;100184.25;;;-0.95;72.60
20710;BME280;10516;51.518;9.864;2023-02-28T06:59:09;100183.91;;;-1.29;69.35
20710;BME280;10516;51.518;9.864;2023-02-28T07:01:34;100183.44;;;-1.05;70.62
20710;BME280;10516;51.518;9.864;2023-02-28T07:04:00;100183.19;;;-1.21;68.87
20710;BME280;10516;51.518;9.864;2023-02-28T07:06:25;100183.63;;;-1.16;71.76
20710;BME280;10516;51.518;9.864;2023-02-28T07:08:51;100193.16;;;-1.34;69.34
20710;BME280;10516;51.518;9.864;2023-02-28T07:11:18;100190.09;;;-1.20;70.30
20710;BME280;10516;51.518;9.864;2023-02-28T07:13:43;100193.81;;;-1.32;69.33
20710;BME280;10516;51.518;9.864;2023-02-28T07:16:09;100191.06;;;-1.31;70.46
20710;BME280;10516;51.518;9.864;2023-02-28T07:18:35;100194.41;;;-1.29;69.77
20710;BME280;10516;51.518;9.864;2023-02-28T07:21:04;100198.78;;;-1.29;69.99
20710;BME280;10516;51.518;9.864;2023-02-28T07:23:29;100192.47;;;-1.36;70.91
20710;BME280;10516;51.518;9.864;2023-02-28T07:25:55;100197.81;;;-1.19;70.06
20710;BME280;10516;51.518;9.864;2023-02-28T07:28:20;100198.78;;;-1.29;70.79
20710;BME280;10516;51.518;9.864;2023-02-28T07:30:45;100193.34;;;-0.99;70.24
20710;BME280;10516;51.518;9.864;2023-02-28T07:33:11;100196.22;;;-0.93;69.18
20710;BME280;10516;51.518;9.864;2023-02-28T07:35:36;100200.38;;;-0.90;69.36
20710;BME280;10516;51.518;9.864;2023-02-28T07:38:01;100191.56;;;-0.99;68.30
20710;BME280;10516;51.518;9.864;2023-02-28T07:40:27;100193.50;;;-1.01;67.76
20710;BME280;10516;51.518;9.864;2023-02-28T07:42:53;100206.78;;;-1.21;66.45
20710;BME280;10516;51.518;9.864;2023-02-28T07:45:18;100196.72;;;-1.16;67.46
20710;BME280;10516;51.518;9.864;2023-02-28T07:47:44;100203.03;;;-1.09;66.24
20710;BME280;10516;51.518;9.864;2023-02-28T07:50:10;100202.06;;;-1.08;66.00
20710;BME280;10516;51.518;9.864;2023-02-28T07:52:36;100200.28;;;-1.08;67.06
20710;BME280;10516;51.518;9.864;2023-02-28T07:55:02;100197.25;;;-1.13;66.53
20710;BME280;10516;51.518;9.864;2023-02-28T07:57:27;100204.25;;;-0.94;67.35
20710;BME280;10516;51.518;9.864;2023-02-28T07:59:52;100201.19;;;-0.90;65.98
20710;BME280;10516;51.518;9.864;2023-02-28T08:02:18;100198.88;;;-0.65;66.62
20710;BME280;10516;51.518;9.864;2023-02-28T08:04:44;100205.63;;;-0.63;65.48
20710;BME280;10516;51.518;9.864;2023-02-28T08:07:11;100199.34;;;-0.70;65.69
20710;BME280;10516;51.518;9.864;2023-02-28T08:09:38;100207.75;;;-0.66;65.45
20710;BME280;10516;51.518;9.864;2023-02-28T08:12:04;100200.97;;;-0.59;65.59
20710;BME280;10516;51.518;9.864;2023-02-28T08:14:29;100195.59;;;-0.67;64.47
20710;BME280;10516;51.518;9.864;2023-02-28T08:16:54;100198.59;;;-0.62;63.89
20710;BME280;10516;51.518;9.864;2023-02-28T08:19:19;100199.94;;;-0.49;63.99
20710;BME280;10516;51.518;9.864;2023-02-28T08:21:45;100201.63;;;-0.03;67.68
20710;BME280;10516;51.518;9.864;2023-02-28T08:24:10;100198.69;;;-0.18;63.58
20710;BME280;10516;51.518;9.864;2023-02-28T08:26:35;100201.78;;;-0.05;65.57
20710;BME280;10516;51.518;9.864;2023-02-28T08:29:00;100197.97;;;-0.37;64.10
20710;BME280;10516;51.518;9.864;2023-02-28T08:31:26;100200.28;;;-0.34;63.68
20710;BME280;10516;51.518;9.864;2023-02-28T08:33:51;100190.81;;;-0.45;62.93
20710;BME280;10516;51.518;9.864;2023-02-28T08:36:18;100198.19;;;-0.58;61.92
20710;BME280;10516;51.518;9.864;2023-02-28T08:38:44;100196.91;;;-0.54;62.46
20710;BME280;10516;51.518;9.864;2023-02-28T08:41:09;100202.66;;;-0.41;61.77
20710;BME280;10516;51.518;9.864;2023-02-28T08:43:35;100187.88;;;-0.15;63.50
20710;BME280;10516;51.518;9.864;2023-02-28T08:46:01;100198.97;;;-0.21;61.46
20710;BME280;10516;51.518;9.864;2023-02-28T08:48:26;100191.25;;;-0.22;61.48
20710;BME280;10516;51.518;9.864;2023-02-28T08:50:59;100184.34;;;-0.23;60.80
20710;BME280;10516;51.518;9.864;2023-02-28T08:53:24;100195.44;;;-0.29;60.44
20710;BME280;10516;51.518;9.864;2023-02-28T08:56:06;100197.69;;;-0.17;60.90
20710;BME280;10516;51.518;9.864;2023-02-28T08:58:32;100197.31;;;-0.22;59.85
20710;BME280;10516;51.518;9.864;2023-02-28T09:00:57;100202.31;;;-0.01;61.15
20710;BME280;10516;51.518;9.864;2023-02-28T09:03:23;100202.22;;;-0.09;59.83
20710;BME280;10516;51.518;9.864;2023-02-28T09:05:55;100204.88;;;0.26;61.39
20710;BME280;10516;51.518;9.864;2023-02-28T09:08:20;100204.19;;;0.42;63.02
20710;BME280;10516;51.518;9.864;2023-02-28T09:10:46;100201.22;;;0.37;66.07
20710;BME280;10516;51.518;9.864;2023-02-28T09:13:11;100201.28;;;0.27;63.29
20710;BME280;10516;51.518;9.864;2023-02-28T09:15:39;100204.13;;;0.34;62.48
20710;BME280;10516;51.518;9.864;2023-02-28T09:18:04;100203.06;;;0.44;62.54
20710;BME280;10516;51.518;9.864;2023-02-28T09:20:30;100203.63;;;0.30;60.87
20710;BME280;10516;51.518;9.864;2023-02-28T09:22:55;100209.38;;;0.34;62.97
20710;BME280;10516;51.518;9.864;2023-02-28T09:25:20;100205.34;;;0.39;62.69
20710;BME280;10516;51.518;9.864;2023-02-28T09:27:46;100192.28;;;0.30;61.02
20710;BME280;10516;51.518;9.864;2023-02-28T09:30:11;100197.06;;;0.52;64.15
20710;BME280;10516;51.518;9.864;2023-02-28T09:32:36;100197.63;;;0.81;65.08
20710;BME280;10516;51.518;9.864;2023-02-28T09:35:02;100194.81;;;0.57;61.45
20710;BME280;10516;51.518;9.864;2023-02-28T09:37:27;100203.72;;;0.64;61.38
20710;BME280;10516;51.518;9.864;2023-02-28T09:39:54;100210.72;;;0.55;60.94
20710;BME280;10516;51.518;9.864;2023-02-28T09:42:25;100207.63;;;0.77;61.35
20710;BME280;10516;51.518;9.864;2023-02-28T09:44:55;100204.50;;;0.74;60.19
20710;BME280;10516;51.518;9.864;2023-02-28T09:47:31;100204.28;;;0.93;61.86
20710;BME280;10516;51.518;9.864;2023-02-28T09:49:59;100208.84;;;1.09;64.12
20710;BME280;10516;51.518;9.864;2023-02-28T09:52:29;100207.56;;;1.13;62.62
20710;BME280;10516;51.518;9.864;2023-02-28T09:54:55;100202.53;;;1.27;62.81
20710;BME280;10516;51.518;9.864;2023-02-28T09:57:35;100209.97;;;1.06;58.71
20710;BME280;10516;51.518;9.864;2023-02-28T10:05:14;100214.22;;;1.07;57.63
20710;BME280;10516;51.518;9.864;2023-02-28T10:10:22;100211.78;;;1.06;59.20
20710;BME280;10516;51.518;9.864;2023-02-28T10:12:49;100213.81;;;1.45;63.13
20710;BME280;10516;51.518;9.864;2023-02-28T10:15:17;100207.22;;;1.41;62.54
20710;BME280;10516;51.518;9.864;2023-02-28T10:17:44;100212.09;;;1.28;59.37
20710;BME280;10516;51.518;9.864;2023-02-28T10:20:19;100207.38;;;1.14;57.02
20710;BME280;10516;51.518;9.864;2023-02-28T10:25:24;100212.44;;;1.08;56.60
20710;BME280;10516;51.518;9.864;2023-02-28T10:27:54;100211.63;;;1.33;62.54
20710;BME280;10516;51.518;9.864;2023-02-28T10:30:22;100217.09;;;1.39;60.52
20710;BME280;10516;51.518;9.864;2023-02-28T10:32:51;100211.88;;;1.22;57.48
20710;BME280;10516;51.518;9.864;2023-02-28T10:35:21;100204.19;;;1.28;60.85
20710;BME280;10516;51.518;9.864;2023-02-28T10:37:49;100202.53;;;1.27;61.96
20710;BME280;10516;51.518;9.864;2023-02-28T10:42:54;100204.66;;;0.98;56.76
20710;BME280;10516;51.518;9.864;2023-02-28T10:45:20;100204.22;;;1.36;62.50
20710;BME280;10516;51.518;9.864;2023-02-28T10:47:53;100197.53;;;1.16;58.24
20710;BME280;10516;51.518;9.864;2023-02-28T10:55:35;100194.16;;;0.98;59.06
20710;BME280;10516;51.518;9.864;2023-02-28T10:58:00;100189.16;;;0.87;57.80
20710;BME280;10516;51.518;9.864;2023-02-28T11:00:25;100188.81;;;0.90;57.15
20710;BME280;10516;51.518;9.864;2023-02-28T11:02:56;100183.94;;;0.95;56.79
20710;BME280;10516;51.518;9.864;2023-02-28T11:05:32;100190.91;;;0.79;56.10
20710;BME280;10516;51.518;9.864;2023-02-28T11:10:30;100184.44;;;0.99;57.37
20710;BME280;10516;51.518;9.864;2023-02-28T11:12:57;100185.91;;;0.93;56.73
20710;BME280;10516;51.518;9.864;2023-02-28T11:15:26;100175.47;;;1.09;60.02
20710;BME280;10516;51.518;9.864;2023-02-28T11:18:17;100177.63;;;1.39;60.70
20710;BME280;10516;51.518;9.864;2023-02-28T11:20:47;100175.31;;;1.36;61.61
20710;BME280;10516;51.518;9.864;2023-02-28T11:23:14;100167.13;;;1.14;58.75
20710;BME280;10516;51.518;9.864;2023-02-28T11:25:40;100174.13;;;1.05;55.84
20710;BME280;10516;51.518;9.864;2023-02-28T11:33:51;100172.28;;;0.98;55.76
20710;BME280;10516;51.518;9.864;2023-02-28T11:36:28;100170.50;;;0.98;55.83
20710;BME280;10516;51.518;9.864;2023-02-28T11:38:54;100170.00;;;1.28;59.93
20710;BME280;10516;51.518;9.864;2023-02-28T11:41:23;100170.50;;;1.32;57.46
20710;BME280;10516;51.518;9.864;2023-02-28T11:51:24;100154.69;;;1.24;59.94
20710;BME280;10516;51.518;9.864;2023-02-28T11:56:36;100162.41;;;1.59;61.04
20710;BME280;10516;51.518;9.864;2023-02-28T12:14:27;100132.81;;;1.15;56.35
20710;BME280;10516;51.518;9.864;2023-02-28T12:19:54;100134.63;;;1.23;56.57
20710;BME280;10516;51.518;9.864;2023-02-28T12:27:29;100122.69;;;1.36;56.39
20710;BME280;10516;51.518;9.864;2023-02-28T12:29:58;100120.72;;;1.38;55.66
20710;BME280;10516;51.518;9.864;2023-02-28T12:32:27;100119.03;;;1.29;55.42
20710;BME280;10516;51.518;9.864;2023-02-28T12:34:57;100122.41;;;1.47;56.57
20710;BME280;10516;51.518;9.864;2023-02-28T12:37:37;100124.22;;;2.13;61.66
20710;BME280;10516;51.518;9.864;2023-02-28T12:40:11;100119.69;;;1.65;55.51
20710;BME280;10516;51.518;9.864;2023-02-28T12:42:42;100120.34;;;1.75;55.96
20710;BME280;10516;51.518;9.864;2023-02-28T12:45:10;100123.53;;;1.95;57.19
20710;BME280;10516;51.518;9.864;2023-02-28T12:47:38;100112.97;;;1.79;55.33
20710;BME280;10516;51.518;9.864;2023-02-28T12:50:06;100110.47;;;1.69;54.75
20710;BME280;10516;51.518;9.864;2023-02-28T13:00:12;100105.41;;;1.84;55.34
20710;BME280;10516;51.518;9.864;2023-02-28T13:10:44;100107.22;;;1.83;55.24
20710;BME280;10516;51.518;9.864;2023-02-28T13:13:14;100099.69;;;2.04;57.14
20710;BME280;10516;51.518;9.864;2023-02-28T13:15:39;100094.06;;;2.56;57.24
20710;BME280;10516;51.518;9.864;2023-02-28T13:18:24;100092.06;;;2.74;55.10
20710;BME280;10516;51.518;9.864;2023-02-28T13:20:52;100089.50;;;2.17;54.31
20710;BME280;10516;51.518;9.864;2023-02-28T13:26:03;100100.66;;;2.03;55.28
20710;BME280;10516;51.518;9.864;2023-02-28T13:31:20;100087.97;;;1.99;54.72
20710;BME280;10516;51.518;9.864;2023-02-28T13:38:55;100079.00;;;2.88;57.48
20710;BME280;10516;51.518;9.864;2023-02-28T13:46:26;100074.44;;;2.74;56.45
20710;BME280;10516;51.518;9.864;2023-02-28T13:48:52;100072.19;;;2.39;53.98
20710;BME280;10516;51.518;9.864;2023-02-28T13:54:00;100068.44;;;3.04;55.87
20710;BME280;10516;51.518;9.864;2023-02-28T13:56:40;100061.75;;;3.25;52.82
20710;BME280;10516;51.518;9.864;2023-02-28T13:59:20;100059.44;;;3.83;57.29
20710;BME280;10516;51.518;9.864;2023-02-28T14:05:00;100049.00;;;4.49;53.24
20710;BME280;10516;51.518;9.864;2023-02-28T14:07:27;100054.94;;;5.10;55.97
20710;BME280;10516;51.518;9.864;2023-02-28T14:09:57;100047.50;;;5.49;53.60
20710;BME280;10516;51.518;9.864;2023-02-28T14:17:52;100040.84;;;3.99;50.61
20710;BME280;10516;51.518;9.864;2023-02-28T14:20:18;100036.69;;;3.82;51.35
20710;BME280;10516;51.518;9.864;2023-02-28T14:38:13;100048.16;;;3.89;52.16
20710;BME280;10516;51.518;9.864;2023-02-28T14:40:39;100044.44;;;4.06;51.25
20710;BME280;10516;51.518;9.864;2023-02-28T14:43:16;100045.91;;;3.86;52.14
20710;BME280;10516;51.518;9.864;2023-02-28T14:45:43;100036.94;;;4.32;58.92
20710;BME280;10516;51.518;9.864;2023-02-28T14:48:09;100041.84;;;3.75;51.84
20710;BME280;10516;51.518;9.864;2023-02-28T14:50:35;100036.44;;;3.69;52.32
20710;BME280;10516;51.518;9.864;2023-02-28T14:53:01;100036.72;;;4.19;55.30
20710;BME280;10516;51.518;9.864;2023-02-28T14:55:45;100038.56;;;4.33;55.32
20710;BME280;10516;51.518;9.864;2023-02-28T15:00:46;100037.72;;;4.99;52.44
20710;BME280;10516;51.518;9.864;2023-02-28T15:05:47;100033.78;;;4.14;51.54
20710;BME280;10516;51.518;9.864;2023-02-28T15:08:17;100031.97;;;3.92;51.92
20710;BME280;10516;51.518;9.864;2023-02-28T15:10:43;100040.53;;;3.94;55.02
20710;BME280;10516;51.518;9.864;2023-02-28T15:13:13;100036.59;;;3.45;53.10
20710;BME280;10516;51.518;9.864;2023-02-28T15:18:16;100033.81;;;3.38;54.45
20710;BME280;10516;51.518;9.864;2023-02-28T15:20:46;100047.00;;;3.08;53.41
20710;BME280;10516;51.518;9.864;2023-02-28T15:23:11;100034.78;;;3.07;54.52
20710;BME280;10516;51.518;9.864;2023-02-28T15:25:37;100043.44;;;2.92;53.90
20710;BME280;10516;51.518;9.864;2023-02-28T15:28:03;100048.50;;;3.02;54.77
20710;BME280;10516;51.518;9.864;2023-02-28T15:30:29;100053.34;;;3.21;54.72